Flight Track Log - Related Links

Times and Time Zones

All times are in EST time to prevent confusion due to time zone crossing. See the N6502A flight status page for this flight to view local times or setup timezone preferences in your user account.

Time Position Orientation Groundspeed Altitude Reporting Facility
EST Latitude Longitude Course Direction KTS MPH feet Rate Location/Type
Sun 07:31:02 AM 27.0481 -81.9522 352° North 143 165 2,500  Level Miami Center
Sun 07:32:02 AM 27.0856 -81.9536 358° North 143 165 3,200 700 Climbing Miami Center
Sun 07:33:02 AM 27.1250 -81.9556 357° North 143 165 3,900 750 Climbing Miami Center
Sun 07:34:00 AM 27.2120 -81.8960 17° North  Level FlightAware Approximate
Sun 07:34:02 AM 27.1625 -81.9572 358° North 143 165 4,700  Level Miami Center
Sun 07:35:00 AM 27.2619 -81.8852 352° North  Level FlightAware Approximate
Sun 07:35:02 AM 27.2000 -81.9611 355° North 143 165 5,300  Level Miami Center
Sun 07:36:02 AM 27.2397 -81.9628 358° North 143 165 5,900 650 Climbing Miami Center
Sun 07:37:02 AM 27.2792 -81.9669 355° North 143 165 6,600 600 Climbing Miami Center
Sun 07:38:02 AM 27.3186 -81.9686 358° North 143 165 7,100 400 Climbing Miami Center
Sun 07:39:02 AM 27.3603 -81.9728 355° North 143 165 7,400  Climbing Miami Center
Sun 07:40:02 AM 27.4108 -81.9633 North 148 170 7,100 -200 Descending Miami Center
Sun 07:41:02 AM 27.4633 -81.9542 North 171 197 7,000  Descending Miami Center
Sun 07:42:02 AM 27.5131 -81.9608 353° North 183 211 7,100 250 Climbing Miami Center
Sun 07:43:02 AM 27.5589 -81.9653 355° North 170 196 7,500 450 Climbing Miami Center
Sun 07:44:02 AM 27.6086 -81.9722 353° North 159 183 8,000 250 Climbing Miami Center
Sun 07:45:02 AM 27.6544 -81.9767 355° North 159 183 8,000  Level Miami Center
Sun 07:46:02 AM 27.7042 -81.9836 353° North 164 189 8,000  Level Miami Center
Sun 07:47:02 AM 27.7500 -81.9881 355° North 171 197 8,000  Level Miami Center
Sun 07:48:02 AM 27.8000 -81.9925 356° North 178 205 8,000  Level Miami Center
Sun 07:49:02 AM 27.8539 -81.9997 353° North 178 205 8,000  Level Miami Center
Sun 07:50:02 AM 27.9039 -82.0067 353° North 178 205 8,000  Level Miami Center
Sun 07:51:02 AM 27.9517 -82.0111 355° North 178 205 8,000  Level Miami Center
Sun 07:51:37 AM 27.9833 -82.0167 351° North 173 199 8,000  Level Tampa TRACON
Sun 07:52:38 AM 28.0333 -82.0000 16° North 192 221 8,000  Level Tampa TRACON
Sun 07:53:32 AM 28.0667 -81.9833 24° Northeast 190 219 8,000  Level Tampa TRACON
Sun 07:54:32 AM 28.1167 -81.9833 360° North 168 193 8,000  Level Tampa TRACON
Sun 07:55:32 AM 28.1667 -82.0000 344° North 171 197 8,000  Level Tampa TRACON
Sun 07:56:32 AM 28.2167 -82.0000 360° North 169 194 8,000 -50 Level Tampa TRACON
Sun 07:57:32 AM 28.2500 -82.0167 336° Northwest 168 193 7,900 -48 Descending Tampa TRACON
Sun 07:58:38 AM 28.3167 -82.0167 360° North 171 197 7,900 50 Level Tampa TRACON
Sun 07:59:32 AM 28.3500 -82.0333 336° Northwest 173 199 8,000 50 Climbing Tampa TRACON
Sun 08:00:38 AM 28.4000 -82.0500 344° North 175 201 8,000  Level Tampa TRACON
Sun 08:01:32 AM 28.4500 -82.0500 360° North 176 203 8,000 -66 Level Tampa TRACON
Sun 08:02:09 AM 28.4789 -82.0567 349° North 176 203 7,900 -90 Descending Jacksonville Center
Sun 08:02:39 AM 28.5019 -82.0633 346° North 176 203 7,900 62 Level Jacksonville Center
Sun 08:03:46 AM 28.5583 -82.0747 350° North 176 203 8,000 47 Climbing Jacksonville Center
Sun 08:04:47 AM 28.6044 -82.0814 353° North 176 203 8,000  Level Jacksonville Center
Sun 08:05:47 AM 28.6525 -82.0883 353° North 174 200 8,000  Level Jacksonville Center
Sun 08:06:48 AM 28.7025 -82.0972 351° North 175 201 8,000  Level Jacksonville Center
Sun 08:07:49 AM 28.7528 -82.1064 351° North 179 206 8,000  Level Jacksonville Center
Sun 08:08:49 AM 28.8028 -82.1178 349° North 178 205 8,000  Level Jacksonville Center
Sun 08:09:56 AM 28.8550 -82.0867 28° Northeast 205 236 8,000  Level Jacksonville Center
Sun 08:10:57 AM 28.9069 -82.0625 22° Northeast 198 228 8,000  Level Jacksonville Center
Sun 08:11:51 AM 28.9569 -82.0453 17° North 194 223 8,000  Level Jacksonville Center
Sun 08:12:52 AM 29.0069 -82.0261 19° North 195 224 8,000  Level Jacksonville Center
Sun 08:13:53 AM 29.0589 -82.0042 20° North 196 226 8,000  Level Jacksonville Center
Sun 08:14:53 AM 29.1089 -81.9894 14° North 190 219 8,000  Level Jacksonville Center
Sun 08:15:54 AM 29.1650 -81.9769 11° North 187 215 8,000  Level Jacksonville Center
Sun 08:16:55 AM 29.2150 -81.9600 16° North 190 219 8,000  Level Jacksonville Center
Sun 08:17:55 AM 29.2650 -81.9475 12° North 188 216 8,000  Level Jacksonville Center
Sun 08:18:56 AM 29.3172 -81.9303 16° North 187 215 8,000  Level Jacksonville Center
Sun 08:19:57 AM 29.3672 -81.9203 10° North 189 217 8,000  Level Jacksonville Center
Sun 08:20:57 AM 29.4192 -81.9031 16° North 186 214 8,000  Level Jacksonville Center
Sun 08:21:52 AM 29.4631 -81.8908 14° North 183 211 8,000  Level Jacksonville Center
Sun 08:22:53 AM 29.5172 -81.8758 14° North 183 211 8,000 49 Level Jacksonville Center
Sun 08:23:54 AM 29.5672 -81.8633 12° North 183 211 8,100 248 Climbing Jacksonville Center
Sun 08:24:54 AM 29.6131 -81.8511 13° North 168 193 8,500 397 Climbing Jacksonville Center
Sun 08:25:55 AM 29.6589 -81.8386 13° North 163 188 8,900 259 Climbing Jacksonville Center
Sun 08:26:50 AM 29.7025 -81.8261 14° North 175 201 9,000 52 Climbing Jacksonville Center
Sun 08:27:50 AM 29.7506 -81.8136 13° North 186 214 9,000 -50 Level Jacksonville Center
Sun 08:28:51 AM 29.8006 -81.7986 15° North 187 215 8,900  Descending Jacksonville Center
Sun 08:29:52 AM 29.8547 -81.7839 13° North 186 214 9,000 50 Climbing Jacksonville Center
Sun 08:30:52 AM 29.9044 -81.7689 15° North 187 215 9,000  Level Jacksonville Center
Sun 08:31:53 AM 29.9544 -81.7586 10° North 186 214 9,000 -47 Level Jacksonville Center
Sun 08:33:00 AM 30.0108 -81.7436 13° North 184 212 8,900  Descending Jacksonville Center
Sun 08:33:55 AM 30.0567 -81.7286 16° North 184 212 9,000 52 Climbing Jacksonville Center
Sun 08:34:55 AM 30.1044 -81.7161 13° North 183 211 9,000  Level Jacksonville Center
Sun 08:35:56 AM 30.1567 -81.7011 14° North 183 211 9,000  Level Jacksonville Center
Sun 08:36:57 AM 30.2086 -81.6858 14° North 184 212 9,000  Level Jacksonville Center
Sun 08:37:57 AM 30.2586 -81.6708 15° North 184 212 9,000  Level Jacksonville Center
Sun 08:38:58 AM 30.3086 -81.6583 12° North 184 212 9,000  Level Jacksonville Center
Sun 08:39:59 AM 30.3564 -81.6456 13° North 185 213 9,000  Level Jacksonville Center
Sun 08:40:59 AM 30.4064 -81.6306 15° North 185 213 9,000  Level Jacksonville Center
Sun 08:42:00 AM 30.4606 -81.6153 14° North 185 213 9,000  Level Jacksonville Center
Sun 08:43:01 AM 30.5106 -81.6003 14° North 182 209 9,000  Level Jacksonville Center
Sun 08:44:02 AM 30.5583 -81.5875 13° North 181 208 9,000  Level Jacksonville Center
Sun 08:44:34 AM 30.5875 -81.5775 16° North 181 208 9,000  Level Jacksonville Center
Sun 08:45:08 AM 30.6147 -81.5697 14° North 180 207 9,000  Level Jacksonville Center
Sun 08:45:34 AM 30.6356 -81.5647 12° North 181 208 9,000  Level Jacksonville Center
Sun 08:46:34 AM 30.6833 -81.5519 13° North 188 216 9,000  Level Jacksonville Center
Sun 08:47:34 AM 30.7311 -81.5367 15° North 182 209 9,000  Level Jacksonville Center
Sun 08:48:34 AM 30.7792 -81.5239 13° North 182 209 9,000  Level Jacksonville Center
Sun 08:49:34 AM 30.8269 -81.5111 13° North 177 204 9,000 -50 Level Jacksonville Center
Sun 08:50:34 AM 30.8769 -81.4958 15° North 177 204 8,900 -50 Descending Jacksonville Center
Sun 08:51:34 AM 30.9228 -81.4831 13° North 177 204 8,900  Level Jacksonville Center
Sun 08:52:34 AM 30.9706 -81.4703 13° North 177 204 8,900 50 Level Jacksonville Center
Sun 08:53:34 AM 31.0183 -81.4550 15° North 177 204 9,000  Climbing Jacksonville Center
Sun 08:54:34 AM 31.0661 -81.4375 17° North 177 204 8,900 -50 Descending Jacksonville Center
Sun 08:55:34 AM 31.1119 -81.4075 29° Northeast 184 212 8,900  Level Jacksonville Center
Sun 08:56:34 AM 31.1575 -81.3778 29° Northeast 184 212 8,900  Level Jacksonville Center
Sun 08:57:34 AM 31.1967 -81.3528 29° Northeast 179 206 8,900  Level Jacksonville Center
Sun 08:58:34 AM 31.2425 -81.3253 27° Northeast 179 206 8,900  Level Jacksonville Center
Sun 08:59:34 AM 31.2919 -81.2928 29° Northeast 179 206 8,900  Level Jacksonville Center
Sun 09:00:34 AM 31.3375 -81.2628 29° Northeast 179 206 8,900  Level Jacksonville Center
Sun 09:01:34 AM 31.3833 -81.2378 25° Northeast 179 206 8,900  Level Jacksonville Center
Sun 09:02:34 AM 31.4225 -81.2103 31° Northeast 179 206 8,900  Level Jacksonville Center
Sun 09:03:34 AM 31.4661 -81.1828 28° Northeast 179 206 8,900  Level Jacksonville Center
Sun 09:04:34 AM 31.5178 -81.1500 28° Northeast 179 206 8,900  Level Jacksonville Center
Sun 09:05:34 AM 31.5653 -81.1200 28° Northeast 179 206 8,900  Level Jacksonville Center
Sun 09:06:34 AM 31.6047 -81.0947 29° Northeast 179 206 8,900  Level Jacksonville Center
Sun 09:07:34 AM 31.6503 -81.0669 27° Northeast 179 206 8,900  Level Jacksonville Center
Sun 09:08:34 AM 31.6997 -81.0344 29° Northeast 179 206 8,900 13 Level Jacksonville Center
Sun 09:10:00 AM 31.7632 -80.9916 30° Northeast  Level FlightAware Approximate
Sun 09:17:00 AM 32.0729 -80.7814 30° Northeast  Level FlightAware Approximate
Sun 09:18:00 AM 32.1171 -80.7513 30° Northeast  Level FlightAware Approximate
Sun 09:19:00 AM 32.1613 -80.7212 30° Northeast  Level FlightAware Approximate
Sun 09:20:00 AM 32.2055 -80.6909 30° Northeast  Level FlightAware Approximate
Sun 09:21:00 AM 32.2502 -80.6616 29° Northeast  Level FlightAware Approximate
Sun 09:22:00 AM 32.2949 -80.6325 29° Northeast  Level FlightAware Approximate
Sun 09:23:00 AM 32.3397 -80.6034 29° Northeast  Level FlightAware Approximate
Sun 09:24:00 AM 32.3844 -80.5742 29° Northeast  Level FlightAware Approximate
Sun 09:25:00 AM 32.4291 -80.5451 29° Northeast  Level FlightAware Approximate
Sun 09:26:00 AM 32.4739 -80.5159 29° Northeast  Level FlightAware Approximate
Sun 09:27:00 AM 32.5186 -80.4866 29° Northeast  Level FlightAware Approximate
Sun 09:28:00 AM 32.5633 -80.4574 29° Northeast  Level FlightAware Approximate
Sun 09:29:00 AM 32.6080 -80.4281 29° Northeast  Level FlightAware Approximate
Sun 09:30:00 AM 32.6526 -80.3986 29° Northeast  Level FlightAware Approximate
Sun 09:31:00 AM 32.6972 -80.3691 29° Northeast  Level FlightAware Approximate
Sun 09:32:00 AM 32.7418 -80.3396 29° Northeast  Level FlightAware Approximate
Sun 09:33:00 AM 32.7864 -80.3101 29° Northeast  Level FlightAware Approximate
Sun 09:34:00 AM 32.8310 -80.2805 29° Northeast  Level FlightAware Approximate
Sun 09:35:00 AM 32.8756 -80.2509 29° Northeast  Level FlightAware Approximate
Sun 09:36:00 AM 32.9202 -80.2212 29° Northeast  Level FlightAware Approximate
Sun 09:37:00 AM 32.9647 -80.1916 29° Northeast  Level FlightAware Approximate
Sun 09:38:00 AM 33.0093 -80.1619 29° Northeast  Level FlightAware Approximate
Sun 09:39:00 AM 33.0539 -80.1321 29° Northeast  Level FlightAware Approximate
Sun 09:40:00 AM 33.0984 -80.1024 29° Northeast  Level FlightAware Approximate
Sun 09:41:00 AM 33.1430 -80.0726 29° Northeast  Level FlightAware Approximate
Sun 09:42:00 AM 33.1875 -80.0428 29° Northeast  Level FlightAware Approximate
Sun 09:43:00 AM 33.2320 -80.0129 29° Northeast  Level FlightAware Approximate
Sun 09:44:00 AM 33.2766 -79.9830 29° Northeast  Level FlightAware Approximate
Sun 09:45:00 AM 33.3211 -79.9531 29° Northeast  Level FlightAware Approximate
Sun 09:46:00 AM 33.3656 -79.9232 29° Northeast  Level FlightAware Approximate
Sun 09:47:00 AM 33.4101 -79.8932 29° Northeast  Level FlightAware Approximate
Sun 09:48:00 AM 33.4546 -79.8631 29° Northeast  Level FlightAware Approximate
Sun 09:49:00 AM 33.4990 -79.8330 29° Northeast  Level FlightAware Approximate
Sun 09:50:00 AM 33.5434 -79.8028 29° Northeast  Level FlightAware Approximate
Sun 09:51:00 AM 33.5879 -79.7726 29° Northeast  Level FlightAware Approximate
Sun 09:52:00 AM 33.6323 -79.7424 30° Northeast  Level FlightAware Approximate
Sun 09:53:00 AM 33.6767 -79.7122 30° Northeast  Level FlightAware Approximate
Sun 09:54:00 AM 33.7211 -79.6819 30° Northeast  Level FlightAware Approximate
Sun 09:55:00 AM 33.7655 -79.6516 30° Northeast  Level FlightAware Approximate
Sun 09:56:00 AM 33.8099 -79.6213 30° Northeast  Level FlightAware Approximate
Sun 09:57:00 AM 33.8546 -79.5916 29° Northeast  Level FlightAware Approximate
Sun 09:58:00 AM 33.8994 -79.5619 29° Northeast  Level FlightAware Approximate
Sun 09:59:00 AM 33.9444 -79.5321 29° Northeast  Level FlightAware Approximate
Sun 10:00:00 AM 33.9894 -79.5022 29° Northeast  Level FlightAware Approximate
Sun 10:01:00 AM 34.0344 -79.4723 29° Northeast  Level FlightAware Approximate
Sun 10:02:00 AM 34.0794 -79.4423 29° Northeast  Level FlightAware Approximate
Sun 10:03:00 AM 34.1244 -79.4123 29° Northeast  Level FlightAware Approximate
Sun 10:04:00 AM 34.1694 -79.3823 29° Northeast  Level FlightAware Approximate
Sun 10:05:00 AM 34.2144 -79.3522 29° Northeast  Level FlightAware Approximate
Sun 10:06:00 AM 34.2594 -79.3222 29° Northeast  Level FlightAware Approximate
Sun 10:07:00 AM 34.3044 -79.2920 29° Northeast  Level FlightAware Approximate
Sun 10:08:00 AM 34.3493 -79.2619 29° Northeast  Level FlightAware Approximate
Sun 10:09:00 AM 34.3943 -79.2317 29° Northeast  Level FlightAware Approximate
Sun 10:10:00 AM 34.4390 -79.2010 30° Northeast  Level FlightAware Approximate
Sun 10:11:00 AM 34.4834 -79.1696 30° Northeast  Level FlightAware Approximate
Sun 10:12:00 AM 34.5278 -79.1382 30° Northeast  Level FlightAware Approximate
Sun 10:13:00 AM 34.5722 -79.1068 30° Northeast  Level FlightAware Approximate
Sun 10:14:00 AM 34.6166 -79.0753 30° Northeast  Level FlightAware Approximate
Sun 10:15:00 AM 34.6610 -79.0439 30° Northeast  Level FlightAware Approximate
Sun 10:16:00 AM 34.7054 -79.0123 30° Northeast  Level FlightAware Approximate
Sun 10:17:00 AM 34.7497 -78.9808 30° Northeast  Level FlightAware Approximate
Sun 10:18:00 AM 34.7941 -78.9492 30° Northeast  Level FlightAware Approximate
Sun 10:19:00 AM 34.8385 -78.9176 30° Northeast  Level FlightAware Approximate
Sun 10:20:00 AM 34.8828 -78.8859 30° Northeast  Level FlightAware Approximate
Sun 10:21:00 AM 34.9272 -78.8542 30° Northeast  Level FlightAware Approximate
Sun 10:22:00 AM 34.9715 -78.8225 30° Northeast  Level FlightAware Approximate
Sun 10:23:00 AM 35.0158 -78.7908 30° Northeast  Level FlightAware Approximate
Sun 10:24:00 AM 35.0601 -78.7590 30° Northeast  Level FlightAware Approximate
Sun 10:24:45 AM 35.1492 -78.7189 31° Northeast 192 221 9,900  Level Washington Center
Sun 10:25:00 AM 35.1044 -78.7271 30° Northeast  Level FlightAware Approximate
Sun 10:25:52 AM 35.2003 -78.6828 30° Northeast 194 223 9,900  Level Washington Center
Sun 10:26:00 AM 35.1487 -78.6953 30° Northeast  Level FlightAware Approximate
Sun 10:26:53 AM 35.2469 -78.6517 29° Northeast 195 224 9,900  Level Washington Center
Sun 10:28:21 AM 35.3128 -78.6006 33° Northeast 194 223 9,900  Level Washington Center
Sun 10:28:57 AM 35.3425 -78.5789 31° Northeast 195 224 9,900  Level Washington Center
Sun 10:29:00 AM 35.2816 -78.5995 31° Northeast  Level FlightAware Approximate
Sun 10:29:52 AM 35.3892 -78.5500 27° Northeast 199 229 9,900  Level Washington Center
Sun 10:30:00 AM 35.3258 -78.5675 31° Northeast  Level FlightAware Approximate
Sun 10:30:50 AM 35.4339 -78.5133 34° Northeast 198 228 10,000  Level Washington Center
Sun 10:31:51 AM 35.4828 -78.4819 28° Northeast 199 229 10,000  Level Washington Center
Sun 10:32:58 AM 35.5317 -78.4456 31° Northeast 202 232 10,000  Level Washington Center
Sun 10:33:04 AM 35.5444 -78.4358 32° Northeast 198 228 10,000 48 Level Washington Center
Sun 10:35:03 AM 35.6333 -78.3750 29° Northeast 219 252 10,100 33 Climbing Washington Center
Sun 10:36:04 AM 35.6844 -78.3386 30° Northeast 215 247 10,100 -50 Level Washington Center
Sun 10:37:04 AM 35.7331 -78.3017 32° Northeast 209 241 10,000 -51 Descending Washington Center
Sun 10:38:02 AM 35.7819 -78.2675 30° Northeast 203 234 10,000  Level Washington Center
Sun 10:39:02 AM 35.8286 -78.2358 29° Northeast 198 228 10,000  Level Washington Center
Sun 10:40:03 AM 35.8753 -78.2014 31° Northeast 198 228 10,000  Level Washington Center
Sun 10:41:03 AM 35.9178 -78.1669 33° Northeast 189 217 10,000  Level Washington Center
Sun 10:42:02 AM 35.9664 -78.1353 28° Northeast 189 217 10,000  Level Washington Center
Sun 10:45:03 AM 36.1103 -78.0319 33° Northeast 189 217 10,000 -25 Level Washington Center
Sun 10:46:04 AM 36.1569 -77.9972 31° Northeast 189 217 9,900 -50 Descending Washington Center
Sun 10:47:04 AM 36.2036 -77.9653 29° Northeast 189 217 9,900  Level Washington Center
Sun 10:49:02 AM 36.2967 -77.8958 31° Northeast 189 217 9,900  Level Washington Center
Sun 10:50:02 AM 36.3433 -77.8611 31° Northeast 189 217 9,900  Level Washington Center
Sun 10:51:03 AM 36.3919 -77.8292 28° Northeast 189 217 9,900  Level Washington Center
Sun 10:52:04 AM 36.4342 -77.7942 34° Northeast 189 217 9,900  Level Washington Center
Sun 10:53:04 AM 36.4808 -77.7592 31° Northeast 189 217 9,900  Level Washington Center
Sun 10:54:02 AM 36.5294 -77.7244 30° Northeast 189 217 9,900  Level Washington Center
Sun 10:55:03 AM 36.5758 -77.6894 31° Northeast 189 217 9,900  Level Washington Center
Sun 10:57:04 AM 36.6731 -77.6169 31° Northeast 189 217 9,900 34 Level Washington Center
Sun 10:58:02 AM 36.7194 -77.5819 31° Northeast 189 217 10,000 51 Climbing Washington Center
Sun 10:59:02 AM 36.7681 -77.5469 30° Northeast 189 217 10,000 -33 Level Washington Center
Sun 11:01:03 AM 36.8672 -77.4767 31° Northeast 189 217 9,900 -33 Descending Washington Center
Sun 11:02:04 AM 36.9139 -77.4389 33° Northeast 189 217 9,900  Level Washington Center
Sun 11:03:02 AM 36.9622 -77.4064 28° Northeast 189 217 9,900  Level Washington Center
Sun 11:04:02 AM 37.0108 -77.3683 32° Northeast 189 217 9,900  Level Washington Center
Sun 11:05:02 AM 37.0594 -77.3331 30° Northeast 189 217 9,900  Level Washington Center
Sun 11:06:03 AM 37.1078 -77.2950 32° Northeast 189 217 9,900  Level Washington Center
Sun 11:07:04 AM 37.1564 -77.2597 30° Northeast 189 217 9,900  Level Washington Center
Sun 11:08:04 AM 37.2047 -77.2242 30° Northeast 189 217 9,900  Level Washington Center
Sun 11:09:02 AM 37.2533 -77.1886 30° Northeast 189 217 9,900  Level Washington Center
Sun 11:10:02 AM 37.3058 -77.1506 30° Northeast 189 217 9,900  Level Washington Center
Sun 11:11:03 AM 37.3544 -77.1150 30° Northeast 194 223 9,900  Level Washington Center
Sun 11:12:03 AM 37.4028 -77.0767 32° Northeast 199 229 9,900  Level Washington Center
Sun 11:13:01 AM 37.4533 -77.0386 31° Northeast 204 235 9,900  Level Washington Center
Sun 11:14:02 AM 37.4997 -77.0028 31° Northeast 204 235 9,900  Level Washington Center
Sun 11:15:03 AM 37.5522 -76.9619 32° Northeast 204 235 9,900  Level Washington Center
Sun 11:16:04 AM 37.6006 -76.9261 30° Northeast 204 235 9,900  Level Washington Center
Sun 11:17:01 AM 37.6489 -76.8875 32° Northeast 204 235 9,900 51 Level Washington Center
Sun 11:18:02 AM 37.6972 -76.8517 30° Northeast 204 235 10,000 33 Climbing Washington Center
Sun 11:20:03 AM 37.7919 -76.7794 31° Northeast 204 235 10,000  Level Washington Center
Sun 11:21:03 AM 37.8403 -76.7436 30° Northeast 204 235 10,000  Level Washington Center
Sun 11:22:03 AM 37.8864 -76.7075 32° Northeast 199 229 10,000  Level Washington Center
Sun 11:23:04 AM 37.9328 -76.6711 32° Northeast 193 222 10,000  Level Washington Center
Sun 11:24:04 AM 37.9811 -76.6350 30° Northeast 193 222 10,000  Level Washington Center
Sun 11:25:02 AM 38.0272 -76.5986 32° Northeast 193 222 10,000  Level Washington Center
Sun 11:26:02 AM 38.0756 -76.5625 30° Northeast 193 222 10,000  Level Washington Center
Sun 11:28:04 AM 38.1656 -76.4922 32° Northeast 193 222 10,000  Level Washington Center
Sun 11:29:02 AM 38.2117 -76.4558 32° Northeast 193 222 10,000 -33 Level Washington Center
Sun 11:31:04 AM 38.3061 -76.3908 28° Northeast 186 214 9,900  Descending Washington Center
Sun 11:32:01 AM 38.3625 -76.3808 North 186 214 10,000 51 Climbing Washington Center
Sun 11:33:02 AM 38.4125 -76.3628 16° North 186 214 10,000  Level Washington Center
Sun 11:34:03 AM 38.4647 -76.3500 11° North 186 214 10,000  Level Washington Center
Sun 11:35:02 AM 38.5150 -76.3347 13° North 186 214 10,000  Level Washington Center
Sun 11:36:03 AM 38.5650 -76.3192 14° North 186 214 10,000  Level Washington Center
Sun 11:37:03 AM 38.6172 -76.3039 13° North 186 214 10,000  Level Washington Center
Sun 11:38:03 AM 38.6672 -76.3122 353° North 181 208 10,000  Level Washington Center
Sun 11:39:49 AM 38.7581 -76.3053 North 182 209 10,000  Level New York Center
Sun 11:41:02 AM 38.8217 -76.3083 358° North 176 203 10,000  Level Washington Center
Sun 11:42:48 AM 38.9167 -76.3000 North 183 211 10,000 -33 Level Potomac TRACON
Sun 11:44:03 AM 38.9758 -76.3072 355° North 176 203 9,900 -34 Descending Washington Center
Sun 11:45:42 AM 39.0667 -76.3000 North 187 215 9,900 -151 Level Potomac TRACON
Sun 11:46:42 AM 39.1333 -76.3000 360° North 199 229 9,500 -421 Descending Potomac TRACON
Sun 11:47:36 AM 39.1667 -76.3000 360° North 200 230 9,100 -263 Descending Potomac TRACON
Sun 11:48:36 AM 39.2333 -76.3000 360° North 199 229 9,000 -50 Descending Potomac TRACON
Sun 11:49:36 AM 39.2833 -76.3000 360° North 188 216 9,000  Level Potomac TRACON
Sun 11:50:36 AM 39.3333 -76.3000 360° North 186 214 9,000 -100 Level Potomac TRACON
Sun 11:51:36 AM 39.3833 -76.3000 360° North 186 214 8,800 -465 Descending Potomac TRACON
Sun 11:53:11 AM 39.4706 -76.2994 360° North 199 229 7,800 -654 Descending New York Center
Sun 11:54:12 AM 39.5319 -76.2994 360° North 203 234 7,100 -683 Descending New York Center
Sun 11:55:14 AM 39.5858 -76.2992 360° North 199 229 6,400 -677 Descending New York Center
Sun 11:56:16 AM 39.6364 -76.2983 North 183 211 5,700 -829 Descending New York Center
Sun 11:57:17 AM 39.6883 -76.2989 360° North 179 206 4,700 -878 Descending New York Center
Sun 11:58:19 AM 39.7394 -76.2981 North 180 207 3,900 -726 Descending New York Center
Sun 11:59:21 AM 39.7872 -76.2983 360° North 178 205 3,200 -439 Descending New York Center
Sun 12:00:22 PM 39.8358 -76.2969 North 165 190 3,000 -98 Descending New York Center
Sun 12:01:24 PM 39.8794 -76.2978 359° North 158 182 3,000  Level New York Center
Sun 12:02:26 PM 39.9253 -76.2967 North 158 182 3,000 -48 Level New York Center
Sun 12:03:28 PM 39.9708 -76.2953 North 158 182 2,900 -293 Descending New York Center
Sun 12:04:29 PM 40.0147 -76.2967 359° North 158 182 2,400 -390 Descending New York Center
Sun 12:05:31 PM 40.0586 -76.2956 North 157 181 2,100 -290 Descending New York Center
Sun 12:07:00 PM 40.1167 -76.2833 North  Level FlightAware Approximate
Sun 12:14:00 PM 40.1224 -76.2944 North  Level Estimated
Sun 12:15:00 PM 40.1224 -76.2944 North  Level Estimated
Sun 12:16:00 PM 40.1224 -76.2944 North  Level Estimated
Sun 12:17:00 PM 40.1224 -76.2944 North  Level Estimated

Login

Don't have an account? Register now (free) for customized features, flight alerts, and more!